Terminal Aerodrome Forecast
Issued by NWS

Home | Current Version | Previous Version | Graphics & Text | Print | Product List | Glossary Off
Versions: 1 2 3 4 5 6 7 8 9 10 11 12 13 14 15 16 17 18 19 20 21 22 23 24 25 26 27 28 29

139
FTUS43 KBIS 132332
TAFDIK
TAF
KDIK 132332Z 1400/1424 18012KT P6SM FEW006 OVC019
     FM140200 25012KT 6SM -SN SCT010 OVC020
     FM140400 27016KT P6SM VCSH OVC010
     FM141200 29013KT P6SM SCT070
     FM141900 28013KT P6SM BKN120=

USA.gov is the U.S. government's official web portal to all federal, state and local government web resources and services.